Baker, California
Current Conditions -  °F | °C
As of 12:55 AM on Sunday 23 Nov 2014 (Local Time) from KBYS Reporting Station
Clear Clear  
Wind Chill: 52°   Ceiling: Unl
Heat Index: 52°   Visibility: 10mi
Dew Point: 38°   Wind: 8mph
Humidity: 59%   Direction: 20°NNE
Pressure: 30.02"   Gusts: NA
Location:  35.26°N, 116.07°W
Report Text: KBYS 230855Z AUTO 02007KT 10SM CLR 11/04 A3002 RMK AO2 SLP158 T01130036 51023 $
Loading
Personal Weather Stations






























Interactive Weather Map New forecast layout! Learn more

10-Day Weather Forecast

Advertisements
Track Severe Weather on mobile